createdAt,value
2022-10-29T00:00:48.680Z,7.97
2022-10-29T00:03:15.295Z,7.30
2022-10-29T00:05:42.022Z,6.05
2022-10-29T00:08:08.765Z,6.63
2022-10-29T00:10:35.581Z,7.30
2022-10-29T00:13:03.399Z,7.45
2022-10-29T00:15:30.179Z,10.10
2022-10-29T00:17:57.083Z,5.85
2022-10-29T00:20:23.975Z,9.00
2022-10-29T00:22:54.364Z,7.55
2022-10-29T00:25:21.462Z,7.53
2022-10-29T00:27:48.168Z,7.22
2022-10-29T00:30:14.757Z,9.55
2022-10-29T00:32:41.350Z,7.38
2022-10-29T00:35:08.261Z,6.78
2022-10-29T00:37:35.638Z,8.00
2022-10-29T00:40:02.265Z,7.75
2022-10-29T00:42:29.226Z,7.63
2022-10-29T00:44:55.945Z,9.23
2022-10-29T00:47:36.362Z,8.02
2022-10-29T00:50:08.306Z,8.38
2022-10-29T00:52:38.916Z,7.65
2022-10-29T00:55:08.726Z,8.80
2022-10-29T00:57:47.793Z,6.60
2022-10-29T01:00:19.330Z,12.20
2022-10-29T01:02:46.076Z,11.25
2022-10-29T01:05:18.726Z,8.27
2022-10-29T01:07:46.227Z,9.02
2022-10-29T01:10:13.699Z,6.55
2022-10-29T01:13:06.400Z,7.22
2022-10-29T01:16:14.901Z,9.63
2022-10-29T01:18:57.097Z,9.27
2022-10-29T01:21:36.141Z,8.50
2022-10-29T01:24:20.457Z,7.78
2022-10-29T01:27:16.283Z,10.95
2022-10-29T01:29:45.704Z,8.40
2022-10-29T01:32:31.129Z,7.78
2022-10-29T01:35:14.933Z,7.22
2022-10-29T01:37:50.299Z,8.38
2022-10-29T01:40:34.885Z,7.95
2022-10-29T01:43:04.395Z,7.35
2022-10-29T01:45:39.490Z,12.65
2022-10-29T01:48:12.104Z,6.07
2022-10-29T01:50:42.346Z,10.38
2022-10-29T01:53:09.313Z,10.30
2022-10-29T01:55:35.924Z,9.70
2022-10-29T01:58:06.430Z,9.55
2022-10-29T02:00:54.951Z,9.38
2022-10-29T02:03:54.247Z,7.07
2022-10-29T02:06:41.785Z,7.93
2022-10-29T02:09:18.346Z,9.43
2022-10-29T02:12:21.473Z,8.35
2022-10-29T02:14:53.474Z,9.45
2022-10-29T02:17:20.335Z,8.85
2022-10-29T02:19:46.918Z,9.05
2022-10-29T02:22:13.594Z,9.15
2022-10-29T02:24:40.082Z,9.70
2022-10-29T02:27:06.654Z,8.43
2022-10-29T02:29:33.208Z,10.20
2022-10-29T02:31:59.747Z,8.88
2022-10-29T02:34:26.254Z,6.75
2022-10-29T02:36:52.909Z,8.07
2022-10-29T02:39:19.410Z,10.35
2022-10-29T02:41:45.998Z,8.32
2022-10-29T02:44:12.534Z,8.05
2022-10-29T02:46:39.110Z,7.75
2022-10-29T02:49:08.444Z,10.85
2022-10-29T02:51:35.167Z,8.45
2022-10-29T02:54:01.664Z,11.00
2022-10-29T02:56:28.280Z,11.93
2022-10-29T02:58:55.357Z,10.07
2022-10-29T03:01:22.036Z,7.55
2022-10-29T03:03:48.622Z,8.82
2022-10-29T03:06:17.486Z,9.43
2022-10-29T03:08:45.118Z,7.57
2022-10-29T03:11:12.080Z,8.50
2022-10-29T03:13:39.158Z,10.68
2022-10-29T03:16:05.840Z,11.15
2022-10-29T03:18:32.470Z,9.75
2022-10-29T03:20:59.117Z,9.45
2022-10-29T03:23:25.767Z,7.88
2022-10-29T03:25:55.825Z,12.23
2022-10-29T03:28:25.135Z,10.27
2022-10-29T03:30:51.702Z,8.57
2022-10-29T03:33:18.287Z,5.95
2022-10-29T03:35:45.055Z,8.27
2022-10-29T03:38:11.714Z,8.45
2022-10-29T03:40:38.214Z,5.97
2022-10-29T03:43:04.889Z,7.53
2022-10-29T03:45:31.445Z,6.40
2022-10-29T03:47:58.273Z,8.32
2022-10-29T03:50:25.014Z,7.57
2022-10-29T03:52:51.590Z,8.50
2022-10-29T03:55:18.096Z,9.70
2022-10-29T03:57:45.360Z,8.30
2022-10-29T04:00:12.353Z,9.85
2022-10-29T04:02:42.418Z,8.52
2022-10-29T04:05:09.233Z,7.00
2022-10-29T04:07:35.813Z,10.43
2022-10-29T04:10:02.327Z,7.03
2022-10-29T04:12:28.962Z,9.07
2022-10-29T04:14:55.473Z,9.80
2022-10-29T04:17:22.215Z,10.68
2022-10-29T04:19:48.840Z,11.13
2022-10-29T04:28:42.021Z,14.18
2022-10-29T04:30:35.265Z,6.45
2022-10-29T04:33:01.768Z,8.02
2022-10-29T04:35:28.773Z,6.32
2022-10-29T04:37:55.719Z,6.60
2022-10-29T04:40:23.768Z,7.13
2022-10-29T04:42:50.824Z,9.63
2022-10-29T04:45:17.933Z,6.57
2022-10-29T04:47:44.703Z,9.57
2022-10-29T04:50:11.357Z,9.38
2022-10-29T04:52:37.897Z,11.68
2022-10-29T04:55:04.893Z,8.63
2022-10-29T04:57:31.405Z,8.00
2022-10-29T04:59:58.179Z,9.27
2022-10-29T05:02:24.669Z,9.15
2022-10-29T05:04:51.235Z,7.88
2022-10-29T05:07:17.807Z,9.38
2022-10-29T05:09:44.387Z,8.43
2022-10-29T05:12:10.891Z,8.38
2022-10-29T05:14:37.467Z,9.43
2022-10-29T05:17:04.032Z,5.30
2022-10-29T05:19:30.670Z,10.45
2022-10-29T05:21:57.266Z,7.93
2022-10-29T05:24:23.906Z,8.25
2022-10-29T05:26:50.403Z,6.13
2022-10-29T05:29:17.028Z,8.15
2022-10-29T05:31:43.536Z,6.68
2022-10-29T05:34:10.078Z,6.40
2022-10-29T05:36:36.634Z,6.43
2022-10-29T05:39:03.305Z,7.13
2022-10-29T05:41:29.802Z,6.18
2022-10-29T05:43:56.410Z,5.70
2022-10-29T05:46:22.908Z,5.03
2022-10-29T05:48:49.514Z,6.60
2022-10-29T05:51:16.034Z,7.00
2022-10-29T05:53:42.623Z,5.85
2022-10-29T05:56:09.122Z,9.63
2022-10-29T05:58:35.782Z,7.43
2022-10-29T06:01:06.472Z,7.65
2022-10-29T06:03:33.288Z,7.70
2022-10-29T06:06:00.068Z,7.85
2022-10-29T06:08:26.855Z,4.75
2022-10-29T06:10:53.538Z,7.72
2022-10-29T06:13:22.089Z,8.75
2022-10-29T06:15:50.023Z,6.35
2022-10-29T06:18:16.672Z,7.93
2022-10-29T06:20:43.194Z,9.40
2022-10-29T06:23:10.704Z,7.25
2022-10-29T06:25:37.238Z,7.53
2022-10-29T06:28:09.485Z,9.85
2022-10-29T06:30:36.486Z,6.97
2022-10-29T06:33:04.790Z,5.07
2022-10-29T06:35:32.078Z,4.45
2022-10-29T06:37:59.219Z,5.68
2022-10-29T06:40:26.292Z,6.30
2022-10-29T06:43:00.520Z,10.85
2022-10-29T06:45:28.557Z,7.50
2022-10-29T06:47:55.323Z,6.25
2022-10-29T06:50:22.161Z,10.80
2022-10-29T06:52:59.611Z,7.10
2022-10-29T06:55:27.027Z,9.93
2022-10-29T06:58:07.124Z,9.52
2022-10-29T07:00:34.809Z,10.55
2022-10-29T07:03:02.066Z,11.05
2022-10-29T07:05:32.951Z,11.30
2022-10-29T07:08:01.213Z,9.98
2022-10-29T07:10:30.368Z,7.80
2022-10-29T07:12:57.047Z,11.45
2022-10-29T07:15:27.292Z,6.95
2022-10-29T07:18:02.296Z,9.02
2022-10-29T07:20:32.002Z,10.32
2022-10-29T07:22:58.960Z,6.60
2022-10-29T07:25:26.040Z,5.97
2022-10-29T07:27:52.668Z,10.65
2022-10-29T07:30:20.060Z,9.85
2022-10-29T07:32:46.609Z,8.00
2022-10-29T07:35:13.276Z,10.77
2022-10-29T07:37:39.784Z,7.55
2022-10-29T07:40:07.230Z,9.10
2022-10-29T07:42:33.798Z,8.65
2022-10-29T07:45:00.332Z,8.75
2022-10-29T07:47:26.881Z,9.75
2022-10-29T07:49:53.572Z,10.23
2022-10-29T07:52:20.100Z,7.45
2022-10-29T07:54:46.659Z,10.75
2022-10-29T07:57:13.206Z,8.82
2022-10-29T07:59:39.771Z,8.65
2022-10-29T08:02:08.320Z,9.38
2022-10-29T08:04:34.996Z,9.95
2022-10-29T08:07:01.669Z,8.63
2022-10-29T08:09:28.239Z,10.95
2022-10-29T08:11:54.793Z,8.38
2022-10-29T08:14:22.793Z,8.52
2022-10-29T08:16:49.445Z,8.50
2022-10-29T08:19:16.141Z,7.93
2022-10-29T08:21:42.657Z,8.85
2022-10-29T08:24:10.166Z,7.18
2022-10-29T08:26:36.710Z,9.10
2022-10-29T08:29:03.480Z,12.35
2022-10-29T08:31:29.986Z,9.10
2022-10-29T08:33:56.678Z,9.73
2022-10-29T08:36:23.209Z,7.80
2022-10-29T08:38:49.817Z,8.63
2022-10-29T08:41:19.372Z,9.70
2022-10-29T08:44:07.941Z,9.02
2022-10-29T08:46:46.616Z,15.98
2022-10-29T08:49:39.859Z,16.70
2022-10-29T08:52:28.242Z,16.85
2022-10-29T08:55:06.546Z,18.25
2022-10-29T08:57:42.134Z,16.85
2022-10-29T09:00:17.153Z,9.98
2022-10-29T09:02:43.903Z,10.30
2022-10-29T09:05:16.049Z,9.82
2022-10-29T09:08:05.138Z,9.32
2022-10-29T09:10:31.670Z,14.82
2022-10-29T09:13:16.969Z,13.95
2022-10-29T09:16:12.316Z,10.05
2022-10-29T09:19:05.969Z,15.25
2022-10-29T09:21:39.254Z,10.68
2022-10-29T09:24:11.937Z,11.20
2022-10-29T09:26:53.017Z,9.95
2022-10-29T09:29:45.983Z,12.85
2022-10-29T09:32:15.218Z,7.55
2022-10-29T09:34:47.228Z,10.75
2022-10-29T09:37:17.083Z,9.98
2022-10-29T09:39:46.028Z,11.98
2022-10-29T09:42:18.082Z,9.45
2022-10-29T09:44:54.738Z,8.40
2022-10-29T09:47:48.953Z,8.68
2022-10-29T09:50:34.664Z,10.20
2022-10-29T09:53:01.676Z,9.88
2022-10-29T09:55:45.936Z,9.40
2022-10-29T09:58:20.460Z,13.35
2022-10-29T10:00:47.063Z,14.88
2022-10-29T10:03:23.445Z,7.82
2022-10-29T10:06:05.424Z,10.80
2022-10-29T10:08:33.086Z,9.55
2022-10-29T10:11:01.713Z,8.80
2022-10-29T10:13:34.807Z,10.95
2022-10-29T10:16:04.386Z,8.77
2022-10-29T10:18:30.934Z,9.65
2022-10-29T10:21:02.596Z,8.25
2022-10-29T10:23:30.761Z,8.65
2022-10-29T10:26:02.330Z,7.55
2022-10-29T10:28:32.937Z,8.25
2022-10-29T10:31:13.286Z,6.25
2022-10-29T10:33:54.158Z,9.73
2022-10-29T10:36:25.442Z,8.07
2022-10-29T10:38:55.388Z,9.77
2022-10-29T10:41:30.230Z,9.13
2022-10-29T10:44:03.342Z,5.70
2022-10-29T10:46:35.514Z,9.10
2022-10-29T10:49:06.649Z,8.93
2022-10-29T10:51:36.015Z,9.68
2022-10-29T10:54:22.755Z,6.85
2022-10-29T10:57:16.939Z,8.75
2022-10-29T10:59:56.869Z,9.15
2022-10-29T11:03:01.343Z,10.43
2022-10-29T11:05:49.288Z,10.77
2022-10-29T11:08:19.412Z,8.20
2022-10-29T11:10:55.865Z,8.13
2022-10-29T11:13:29.973Z,9.02
2022-10-29T11:16:16.380Z,8.40
2022-10-29T11:18:53.323Z,8.68
2022-10-29T11:21:39.582Z,10.02
2022-10-29T11:24:11.037Z,14.55
2022-10-29T11:26:44.542Z,7.80
2022-10-29T11:29:30.999Z,6.43
2022-10-29T11:32:12.530Z,10.18
2022-10-29T11:34:56.713Z,8.75
2022-10-29T11:37:34.031Z,10.18
2022-10-29T11:40:51.357Z,8.30
2022-10-29T11:43:20.671Z,11.60
2022-10-29T11:46:03.703Z,7.28
2022-10-29T11:48:36.125Z,7.43
2022-10-29T11:51:31.160Z,8.63
2022-10-29T11:54:22.102Z,9.07
2022-10-29T11:56:52.596Z,10.77
2022-10-29T11:59:28.453Z,9.20
2022-10-29T12:02:07.115Z,7.63
2022-10-29T12:04:42.778Z,7.22
2022-10-29T12:07:24.973Z,11.52
2022-10-29T12:10:00.373Z,9.10
2022-10-29T12:12:37.655Z,9.70
2022-10-29T12:15:17.617Z,9.98
2022-10-29T12:17:53.596Z,7.90
2022-10-29T12:20:32.554Z,10.18
2022-10-29T12:23:15.087Z,9.38
2022-10-29T12:26:11.131Z,9.90
2022-10-29T12:29:06.960Z,9.00
2022-10-29T12:31:41.228Z,8.65
2022-10-29T12:34:07.771Z,7.20
2022-10-29T12:36:45.784Z,6.30
2022-10-29T12:39:27.578Z,7.95
2022-10-29T12:42:01.260Z,10.73
2022-10-29T12:44:39.977Z,5.95
2022-10-29T12:47:24.161Z,9.02
2022-10-29T12:50:12.611Z,6.70
2022-10-29T12:52:57.552Z,9.90
2022-10-29T12:55:25.070Z,6.45
2022-10-29T12:57:51.585Z,7.35
2022-10-29T13:00:24.091Z,7.07
2022-10-29T13:02:51.952Z,9.02
2022-10-29T13:05:35.762Z,7.85
2022-10-29T13:08:02.285Z,8.77
2022-10-29T13:10:28.743Z,6.97
2022-10-29T13:12:55.356Z,8.95
2022-10-29T13:15:24.171Z,9.45
2022-10-29T13:17:54.336Z,6.55
2022-10-29T13:20:33.031Z,7.85
2022-10-29T13:23:02.878Z,8.82
2022-10-29T13:25:38.048Z,9.43
2022-10-29T13:28:27.297Z,8.57
2022-10-29T13:31:14.298Z,7.65
2022-10-29T13:33:40.796Z,8.95
2022-10-29T13:36:16.356Z,9.30
2022-10-29T13:38:57.944Z,11.80
2022-10-29T13:41:38.130Z,8.32
2022-10-29T13:44:19.580Z,9.45
2022-10-29T13:46:47.714Z,7.53
2022-10-29T13:49:32.348Z,9.77
2022-10-29T13:52:17.253Z,8.57
2022-10-29T13:54:49.476Z,12.07
2022-10-29T13:57:22.058Z,9.70
2022-10-29T13:59:55.552Z,6.18
2022-10-29T14:02:37.364Z,10.60
2022-10-29T14:05:09.177Z,7.28
2022-10-29T14:07:45.584Z,6.78
2022-10-29T14:10:20.528Z,7.68
2022-10-29T14:12:51.397Z,5.10
2022-10-29T14:15:18.077Z,7.32
2022-10-29T14:17:44.653Z,9.65
2022-10-29T14:20:26.893Z,7.30
2022-10-29T14:22:54.125Z,6.93
2022-10-29T14:25:36.713Z,7.03
2022-10-29T14:28:14.860Z,9.00
2022-10-29T14:30:41.644Z,8.18
2022-10-29T14:33:38.549Z,6.25
2022-10-29T14:36:32.113Z,8.60
2022-10-29T14:39:05.446Z,8.07
2022-10-29T14:41:32.329Z,8.70
2022-10-29T14:44:07.007Z,9.63
2022-10-29T14:46:35.827Z,8.30
2022-10-29T14:49:11.459Z,9.05
2022-10-29T14:52:17.257Z,8.07
2022-10-29T14:54:48.286Z,6.40
2022-10-29T14:57:17.941Z,8.65
2022-10-29T14:59:51.893Z,7.60
2022-10-29T15:02:37.065Z,12.27
2022-10-29T15:05:25.521Z,9.95
2022-10-29T15:08:03.058Z,9.90
2022-10-29T15:10:29.754Z,8.65
2022-10-29T15:12:56.571Z,7.75
2022-10-29T15:15:26.187Z,8.90
2022-10-29T15:18:17.869Z,13.23
2022-10-29T15:20:46.222Z,8.38
2022-10-29T15:23:32.054Z,10.20
2022-10-29T15:26:02.852Z,8.38
2022-10-29T15:28:31.606Z,7.25
2022-10-29T15:31:02.202Z,11.00
2022-10-29T15:33:30.137Z,10.27
2022-10-29T15:36:01.970Z,10.77
2022-10-29T15:38:31.707Z,9.73
2022-10-29T15:41:38.394Z,10.52
2022-10-29T15:44:40.066Z,9.13
2022-10-29T15:47:19.852Z,16.63
2022-10-29T15:49:46.541Z,26.13
2022-10-29T15:52:17.048Z,14.27
2022-10-29T15:54:43.805Z,12.02
2022-10-29T15:57:13.622Z,11.45
2022-10-29T15:59:40.688Z,11.05
2022-10-29T16:02:15.487Z,13.23
2022-10-29T16:04:42.135Z,12.93
2022-10-29T16:07:12.876Z,8.40
2022-10-29T16:09:46.767Z,9.77
2022-10-29T16:12:13.767Z,6.97
2022-10-29T16:14:40.284Z,7.18
2022-10-29T16:17:18.522Z,8.75
2022-10-29T16:19:45.313Z,44.85
2022-10-29T16:22:27.903Z,12.40
2022-10-29T16:24:54.977Z,8.88
2022-10-29T16:27:21.600Z,10.43
2022-10-29T16:29:48.502Z,13.85
2022-10-29T16:32:17.540Z,13.63
2022-10-29T16:34:44.151Z,13.82
2022-10-29T16:37:16.647Z,10.30
2022-10-29T16:39:44.040Z,10.77
2022-10-29T16:42:33.405Z,9.13
2022-10-29T16:45:00.069Z,13.57
2022-10-29T16:47:26.639Z,24.48
2022-10-29T16:49:53.312Z,44.58
2022-10-29T16:52:23.111Z,10.30
2022-10-29T16:54:50.901Z,8.82
2022-10-29T16:57:17.440Z,15.05
2022-10-29T16:59:44.077Z,12.95
2022-10-29T17:02:11.983Z,13.10
2022-10-29T17:04:38.686Z,11.90
2022-10-29T17:07:05.229Z,11.77
2022-10-29T17:09:31.854Z,12.23
2022-10-29T17:11:58.387Z,15.32
2022-10-29T17:14:25.022Z,17.88
2022-10-29T17:16:51.532Z,13.07
2022-10-29T17:19:18.216Z,15.13
2022-10-29T17:21:44.717Z,18.15
2022-10-29T17:24:11.408Z,11.20
2022-10-29T17:26:37.966Z,10.18
2022-10-29T17:29:04.530Z,14.48
2022-10-29T17:31:31.040Z,7.75
2022-10-29T17:33:57.939Z,9.85
2022-10-29T17:36:24.467Z,14.20
2022-10-29T17:38:51.030Z,14.55
2022-10-29T17:41:17.686Z,10.93
2022-10-29T17:43:44.303Z,16.00
2022-10-29T17:46:10.800Z,12.57
2022-10-29T17:48:37.471Z,11.93
2022-10-29T17:51:04.172Z,8.43
2022-10-29T17:53:31.195Z,14.85
2022-10-29T17:55:59.273Z,24.02
2022-10-29T17:58:26.113Z,42.42
2022-10-29T18:00:52.895Z,36.22
2022-10-29T18:03:19.683Z,56.65
2022-10-29T18:05:46.200Z,78.40
2022-10-29T18:08:12.772Z,75.68
2022-10-29T18:10:39.356Z,58.08
2022-10-29T18:13:05.961Z,54.75
2022-10-29T18:15:32.494Z,44.03
2022-10-29T18:17:59.361Z,39.95
2022-10-29T18:20:26.002Z,42.35
2022-10-29T18:22:55.885Z,34.65
2022-10-29T18:25:22.877Z,33.28
2022-10-29T18:27:49.451Z,25.48
2022-10-29T18:30:16.036Z,20.60
2022-10-29T18:32:42.639Z,19.33
2022-10-29T18:35:09.763Z,17.83
2022-10-29T18:37:36.344Z,18.52
2022-10-29T18:40:02.979Z,20.15
2022-10-29T18:42:29.587Z,19.50
2022-10-29T18:44:56.118Z,19.58
2022-10-29T18:47:22.811Z,23.80
2022-10-29T18:49:49.349Z,19.65
2022-10-29T18:52:15.902Z,20.83
2022-10-29T18:54:42.563Z,18.83
2022-10-29T18:57:09.191Z,16.65
2022-10-29T18:59:35.691Z,18.63
2022-10-29T19:02:02.417Z,18.60
2022-10-29T19:04:29.088Z,25.42
2022-10-29T19:06:55.664Z,28.85
2022-10-29T19:09:22.178Z,23.20
2022-10-29T19:11:53.958Z,19.98
2022-10-29T19:14:23.520Z,19.50
2022-10-29T19:16:59.336Z,21.50
2022-10-29T19:19:26.804Z,22.48
2022-10-29T19:21:53.586Z,25.05
2022-10-29T19:24:20.278Z,24.58
2022-10-29T19:26:46.956Z,21.20
2022-10-29T19:29:13.933Z,16.20
2022-10-29T19:31:40.625Z,17.83
2022-10-29T19:34:08.115Z,20.25
2022-10-29T19:36:36.379Z,20.17
2022-10-29T19:39:04.654Z,19.92
2022-10-29T19:41:31.996Z,20.27
2022-10-29T19:43:59.945Z,23.45
2022-10-29T19:46:27.173Z,18.95
2022-10-29T19:48:55.702Z,19.45
2022-10-29T19:51:23.292Z,17.88
2022-10-29T19:53:50.770Z,19.63
2022-10-29T19:56:18.261Z,16.60
2022-10-29T19:58:44.848Z,16.45
2022-10-29T20:01:13.980Z,11.43
2022-10-29T20:03:40.751Z,13.13
2022-10-29T20:06:08.173Z,11.88
2022-10-29T20:08:38.684Z,12.57
2022-10-29T20:11:05.996Z,13.32
2022-10-29T20:13:32.673Z,13.10
2022-10-29T20:15:59.545Z,11.65
2022-10-29T20:18:26.230Z,12.45
2022-10-29T20:20:56.961Z,11.20
2022-10-29T20:23:24.408Z,12.13
2022-10-29T20:25:51.005Z,11.52
2022-10-29T20:28:17.665Z,15.18
2022-10-29T20:30:44.256Z,12.88
2022-10-29T20:33:10.967Z,18.55
2022-10-29T20:35:37.548Z,15.27
2022-10-29T20:38:04.693Z,13.00
2022-10-29T20:40:31.332Z,17.98
2022-10-29T20:42:58.109Z,14.95
2022-10-29T20:45:24.713Z,14.85
2022-10-29T20:47:51.317Z,16.88
2022-10-29T20:50:18.245Z,18.35
2022-10-29T20:52:48.574Z,16.38
2022-10-29T20:55:16.286Z,16.85
2022-10-29T20:57:42.814Z,16.48
2022-10-29T21:00:10.149Z,13.43
2022-10-29T21:02:36.876Z,14.15
2022-10-29T21:05:03.827Z,14.25
2022-10-29T21:07:30.331Z,12.75
2022-10-29T21:09:57.057Z,12.95
2022-10-29T21:12:24.656Z,7.28
2022-10-29T21:14:51.283Z,11.98
2022-10-29T21:17:18.254Z,9.95
2022-10-29T21:19:46.203Z,9.55
2022-10-29T21:22:15.015Z,15.98
2022-10-29T21:24:44.715Z,13.32
2022-10-29T21:27:12.366Z,13.30
2022-10-29T21:29:39.048Z,8.77
2022-10-29T21:32:08.356Z,14.15
2022-10-29T21:34:36.759Z,11.55
2022-10-29T21:37:03.249Z,11.25
2022-10-29T21:39:29.875Z,13.95
2022-10-29T21:41:56.593Z,7.93
2022-10-29T21:44:24.249Z,11.15
2022-10-29T21:46:50.897Z,7.90
2022-10-29T21:49:17.920Z,11.55
2022-10-29T21:51:44.415Z,13.27
2022-10-29T21:54:11.073Z,11.60
2022-10-29T21:56:37.566Z,9.38
2022-10-29T21:59:04.127Z,8.32
2022-10-29T22:01:31.121Z,7.35
2022-10-29T22:03:59.925Z,10.95
2022-10-29T22:06:26.615Z,9.95
2022-10-29T22:08:58.661Z,8.55
2022-10-29T22:11:26.616Z,10.00
2022-10-29T22:13:54.573Z,10.65
2022-10-29T22:16:22.245Z,11.93
2022-10-29T22:18:50.909Z,12.15
2022-10-29T22:21:20.535Z,11.95
2022-10-29T22:23:53.221Z,8.45
2022-10-29T22:26:29.038Z,10.07
2022-10-29T22:28:55.866Z,9.18
2022-10-29T22:31:23.725Z,8.70
2022-10-29T22:33:50.874Z,9.55
2022-10-29T22:36:20.540Z,8.77
2022-10-29T22:38:51.748Z,12.10
2022-10-29T22:41:18.433Z,10.10
2022-10-29T22:43:45.723Z,10.02
2022-10-29T22:46:14.919Z,9.32
2022-10-29T22:48:41.912Z,10.25
2022-10-29T22:51:21.146Z,10.02
2022-10-29T22:53:48.170Z,9.07
2022-10-29T22:56:16.776Z,12.40
2022-10-29T22:58:43.846Z,7.70
2022-10-29T23:01:16.597Z,9.20
2022-10-29T23:03:43.857Z,11.00
2022-10-29T23:06:13.593Z,9.43
2022-10-29T23:08:40.465Z,8.68
2022-10-29T23:11:18.542Z,7.60
2022-10-29T23:13:48.927Z,11.27
2022-10-29T23:16:15.775Z,10.82
2022-10-29T23:18:42.803Z,11.57
2022-10-29T23:21:09.393Z,8.95
2022-10-29T23:23:36.520Z,6.60
2022-10-29T23:26:03.537Z,9.82
2022-10-29T23:28:32.445Z,10.15
2022-10-29T23:31:01.049Z,9.07
2022-10-29T23:33:29.358Z,8.02
2022-10-29T23:35:56.222Z,8.35
2022-10-29T23:38:22.897Z,6.10
2022-10-29T23:40:49.482Z,11.93
2022-10-29T23:43:16.033Z,10.52
2022-10-29T23:45:43.038Z,6.80
2022-10-29T23:48:10.508Z,11.18
2022-10-29T23:50:38.028Z,7.25
2022-10-29T23:53:05.219Z,13.35
2022-10-29T23:55:31.918Z,6.25
2022-10-29T23:57:58.696Z,8.23
